sensor_id;sensor_type;location;lat;lon;timestamp;P1;durP1;ratioP1;P2;durP2;ratioP2
52878;SDS011;38747;53.140;6.498;2023-08-31T00:02:09;5.25;;;1.55;;
52878;SDS011;38747;53.140;6.498;2023-08-31T00:04:35;5.40;;;1.60;;
52878;SDS011;38747;53.140;6.498;2023-08-31T00:07:00;5.37;;;1.80;;
52878;SDS011;38747;53.140;6.498;2023-08-31T00:09:26;5.55;;;1.70;;
52878;SDS011;38747;53.140;6.498;2023-08-31T00:11:52;5.07;;;1.57;;
52878;SDS011;38747;53.140;6.498;2023-08-31T00:14:17;5.00;;;1.75;;
52878;SDS011;38747;53.140;6.498;2023-08-31T00:16:43;5.37;;;1.63;;
52878;SDS011;38747;53.140;6.498;2023-08-31T00:19:11;5.57;;;1.70;;
52878;SDS011;38747;53.140;6.498;2023-08-31T00:21:37;5.18;;;1.75;;
52878;SDS011;38747;53.140;6.498;2023-08-31T00:24:03;4.17;;;1.60;;
52878;SDS011;38747;53.140;6.498;2023-08-31T00:26:29;4.85;;;1.80;;
52878;SDS011;38747;53.140;6.498;2023-08-31T00:28:56;3.92;;;1.63;;
52878;SDS011;38747;53.140;6.498;2023-08-31T00:31:23;6.43;;;1.80;;
52878;SDS011;38747;53.140;6.498;2023-08-31T00:33:49;7.00;;;1.77;;
52878;SDS011;38747;53.140;6.498;2023-08-31T00:36:15;6.28;;;1.52;;
52878;SDS011;38747;53.140;6.498;2023-08-31T00:38:41;5.88;;;1.80;;
52878;SDS011;38747;53.140;6.498;2023-08-31T00:41:07;5.00;;;1.60;;
52878;SDS011;38747;53.140;6.498;2023-08-31T00:43:32;4.18;;;1.55;;
52878;SDS011;38747;53.140;6.498;2023-08-31T00:45:59;4.82;;;1.60;;
52878;SDS011;38747;53.140;6.498;2023-08-31T00:48:24;4.23;;;1.40;;
52878;SDS011;38747;53.140;6.498;2023-08-31T00:50:51;6.10;;;1.60;;
52878;SDS011;38747;53.140;6.498;2023-08-31T00:53:17;4.68;;;1.63;;
52878;SDS011;38747;53.140;6.498;2023-08-31T00:55:46;4.05;;;1.42;;
52878;SDS011;38747;53.140;6.498;2023-08-31T00:58:12;4.17;;;1.27;;
52878;SDS011;38747;53.140;6.498;2023-08-31T01:03:05;5.32;;;1.73;;
52878;SDS011;38747;53.140;6.498;2023-08-31T01:14:38;5.07;;;1.45;;
52878;SDS011;38747;53.140;6.498;2023-08-31T01:17:15;4.75;;;1.30;;
52878;SDS011;38747;53.140;6.498;2023-08-31T01:19:49;5.13;;;1.35;;
52878;SDS011;38747;53.140;6.498;2023-08-31T01:22:31;3.40;;;1.27;;
52878;SDS011;38747;53.140;6.498;2023-08-31T01:25:05;4.35;;;1.20;;
52878;SDS011;38747;53.140;6.498;2023-08-31T01:27:34;4.13;;;1.23;;
52878;SDS011;38747;53.140;6.498;2023-08-31T01:30:01;4.13;;;1.55;;
52878;SDS011;38747;53.140;6.498;2023-08-31T01:32:28;5.00;;;1.30;;
52878;SDS011;38747;53.140;6.498;2023-08-31T01:34:54;4.13;;;1.00;;
52878;SDS011;38747;53.140;6.498;2023-08-31T01:37:26;2.83;;;1.10;;
52878;SDS011;38747;53.140;6.498;2023-08-31T01:40:09;5.43;;;1.20;;
52878;SDS011;38747;53.140;6.498;2023-08-31T01:42:42;3.13;;;1.00;;
52878;SDS011;38747;53.140;6.498;2023-08-31T01:45:10;3.23;;;1.10;;
52878;SDS011;38747;53.140;6.498;2023-08-31T01:47:38;4.35;;;1.20;;
52878;SDS011;38747;53.140;6.498;2023-08-31T01:50:04;3.47;;;1.13;;
52878;SDS011;38747;53.140;6.498;2023-08-31T01:52:30;4.25;;;1.02;;
52878;SDS011;38747;53.140;6.498;2023-08-31T01:54:56;2.97;;;1.37;;
52878;SDS011;38747;53.140;6.498;2023-08-31T01:57:22;7.43;;;1.25;;
52878;SDS011;38747;53.140;6.498;2023-08-31T01:59:47;2.47;;;0.93;;
52878;SDS011;38747;53.140;6.498;2023-08-31T02:02:13;2.83;;;1.00;;
52878;SDS011;38747;53.140;6.498;2023-08-31T02:04:39;3.45;;;1.10;;
52878;SDS011;38747;53.140;6.498;2023-08-31T02:07:05;3.22;;;1.17;;
52878;SDS011;38747;53.140;6.498;2023-08-31T02:09:30;2.13;;;1.00;;
52878;SDS011;38747;53.140;6.498;2023-08-31T02:11:56;3.23;;;1.10;;
52878;SDS011;38747;53.140;6.498;2023-08-31T02:14:22;3.60;;;1.42;;
52878;SDS011;38747;53.140;6.498;2023-08-31T02:16:48;3.42;;;1.10;;
52878;SDS011;38747;53.140;6.498;2023-08-31T02:19:14;5.23;;;1.00;;
52878;SDS011;38747;53.140;6.498;2023-08-31T02:21:39;2.20;;;0.97;;
52878;SDS011;38747;53.140;6.498;2023-08-31T02:24:05;3.43;;;1.23;;
52878;SDS011;38747;53.140;6.498;2023-08-31T02:26:31;3.05;;;0.93;;
52878;SDS011;38747;53.140;6.498;2023-08-31T02:28:58;4.43;;;1.10;;
52878;SDS011;38747;53.140;6.498;2023-08-31T02:31:24;4.87;;;1.27;;
52878;SDS011;38747;53.140;6.498;2023-08-31T02:33:50;2.53;;;0.90;;
52878;SDS011;38747;53.140;6.498;2023-08-31T02:36:16;4.77;;;1.00;;
52878;SDS011;38747;53.140;6.498;2023-08-31T02:38:41;3.08;;;0.98;;
52878;SDS011;38747;53.140;6.498;2023-08-31T02:41:07;2.93;;;1.00;;
52878;SDS011;38747;53.140;6.498;2023-08-31T02:43:33;4.63;;;1.20;;
52878;SDS011;38747;53.140;6.498;2023-08-31T02:45:59;3.57;;;0.83;;
52878;SDS011;38747;53.140;6.498;2023-08-31T02:48:28;2.83;;;0.80;;
52878;SDS011;38747;53.140;6.498;2023-08-31T02:50:56;2.00;;;0.80;;
52878;SDS011;38747;53.140;6.498;2023-08-31T02:53:23;3.90;;;0.77;;
52878;SDS011;38747;53.140;6.498;2023-08-31T02:55:48;4.80;;;0.90;;
52878;SDS011;38747;53.140;6.498;2023-08-31T02:58:15;2.08;;;0.70;;
52878;SDS011;38747;53.140;6.498;2023-08-31T03:00:41;3.53;;;1.00;;
52878;SDS011;38747;53.140;6.498;2023-08-31T03:03:09;2.50;;;0.85;;
52878;SDS011;38747;53.140;6.498;2023-08-31T03:05:35;3.77;;;1.37;;
52878;SDS011;38747;53.140;6.498;2023-08-31T03:08:01;3.07;;;0.90;;
52878;SDS011;38747;53.140;6.498;2023-08-31T03:10:26;3.33;;;0.80;;
52878;SDS011;38747;53.140;6.498;2023-08-31T03:12:52;1.73;;;0.80;;
52878;SDS011;38747;53.140;6.498;2023-08-31T03:15:18;3.10;;;0.90;;
52878;SDS011;38747;53.140;6.498;2023-08-31T03:17:44;2.85;;;1.05;;
52878;SDS011;38747;53.140;6.498;2023-08-31T03:20:09;2.13;;;0.70;;
52878;SDS011;38747;53.140;6.498;2023-08-31T03:22:35;2.47;;;0.82;;
52878;SDS011;38747;53.140;6.498;2023-08-31T03:25:01;2.78;;;1.00;;
52878;SDS011;38747;53.140;6.498;2023-08-31T03:27:27;3.60;;;0.97;;
52878;SDS011;38747;53.140;6.498;2023-08-31T03:29:52;3.13;;;0.83;;
52878;SDS011;38747;53.140;6.498;2023-08-31T03:32:18;3.97;;;0.80;;
52878;SDS011;38747;53.140;6.498;2023-08-31T03:34:44;4.03;;;1.00;;
52878;SDS011;38747;53.140;6.498;2023-08-31T03:37:10;3.00;;;1.03;;
52878;SDS011;38747;53.140;6.498;2023-08-31T03:39:35;2.75;;;1.00;;
52878;SDS011;38747;53.140;6.498;2023-08-31T03:42:02;3.45;;;0.90;;
52878;SDS011;38747;53.140;6.498;2023-08-31T03:44:27;3.37;;;1.17;;
52878;SDS011;38747;53.140;6.498;2023-08-31T03:46:53;3.17;;;0.90;;
52878;SDS011;38747;53.140;6.498;2023-08-31T03:49:19;1.67;;;0.60;;
52878;SDS011;38747;53.140;6.498;2023-08-31T03:51:45;4.00;;;1.00;;
52878;SDS011;38747;53.140;6.498;2023-08-31T03:54:10;3.83;;;0.90;;
52878;SDS011;38747;53.140;6.498;2023-08-31T03:56:38;2.10;;;0.80;;
52878;SDS011;38747;53.140;6.498;2023-08-31T03:59:03;3.50;;;0.70;;
52878;SDS011;38747;53.140;6.498;2023-08-31T04:01:30;2.92;;;0.80;;
52878;SDS011;38747;53.140;6.498;2023-08-31T04:03:56;2.93;;;0.83;;
52878;SDS011;38747;53.140;6.498;2023-08-31T04:06:22;3.10;;;0.77;;
52878;SDS011;38747;53.140;6.498;2023-08-31T04:08:47;2.03;;;0.90;;
52878;SDS011;38747;53.140;6.498;2023-08-31T04:11:13;2.73;;;0.90;;
52878;SDS011;38747;53.140;6.498;2023-08-31T04:13:39;2.97;;;0.93;;
52878;SDS011;38747;53.140;6.498;2023-08-31T04:16:04;4.28;;;0.95;;
52878;SDS011;38747;53.140;6.498;2023-08-31T04:18:30;4.50;;;1.05;;
52878;SDS011;38747;53.140;6.498;2023-08-31T04:20:56;4.23;;;1.10;;
52878;SDS011;38747;53.140;6.498;2023-08-31T04:23:24;2.55;;;1.05;;
52878;SDS011;38747;53.140;6.498;2023-08-31T04:25:49;7.53;;;1.57;;
52878;SDS011;38747;53.140;6.498;2023-08-31T04:28:18;2.92;;;1.05;;
52878;SDS011;38747;53.140;6.498;2023-08-31T04:30:44;5.18;;;1.00;;
52878;SDS011;38747;53.140;6.498;2023-08-31T04:33:09;3.13;;;1.00;;
52878;SDS011;38747;53.140;6.498;2023-08-31T04:35:35;5.30;;;1.30;;
52878;SDS011;38747;53.140;6.498;2023-08-31T04:38:01;3.57;;;1.40;;
52878;SDS011;38747;53.140;6.498;2023-08-31T04:40:27;3.92;;;1.33;;
52878;SDS011;38747;53.140;6.498;2023-08-31T04:42:54;3.85;;;1.30;;
52878;SDS011;38747;53.140;6.498;2023-08-31T04:45:20;3.38;;;1.20;;
52878;SDS011;38747;53.140;6.498;2023-08-31T04:47:46;3.73;;;1.40;;
52878;SDS011;38747;53.140;6.498;2023-08-31T04:50:11;5.37;;;1.50;;
52878;SDS011;38747;53.140;6.498;2023-08-31T04:52:37;4.40;;;1.50;;
52878;SDS011;38747;53.140;6.498;2023-08-31T04:55:06;4.07;;;1.60;;
52878;SDS011;38747;53.140;6.498;2023-08-31T04:57:38;4.30;;;1.50;;
52878;SDS011;38747;53.140;6.498;2023-08-31T05:00:07;4.18;;;1.80;;
52878;SDS011;38747;53.140;6.498;2023-08-31T05:02:34;4.78;;;1.70;;
52878;SDS011;38747;53.140;6.498;2023-08-31T05:05:00;4.53;;;1.80;;
52878;SDS011;38747;53.140;6.498;2023-08-31T05:07:25;5.88;;;2.42;;
52878;SDS011;38747;53.140;6.498;2023-08-31T05:09:51;4.17;;;1.67;;
52878;SDS011;38747;53.140;6.498;2023-08-31T05:12:17;7.35;;;2.05;;
52878;SDS011;38747;53.140;6.498;2023-08-31T05:14:42;5.63;;;1.80;;
52878;SDS011;38747;53.140;6.498;2023-08-31T05:17:08;3.42;;;1.45;;
52878;SDS011;38747;53.140;6.498;2023-08-31T05:19:34;4.70;;;2.00;;
52878;SDS011;38747;53.140;6.498;2023-08-31T05:22:00;5.63;;;1.90;;
52878;SDS011;38747;53.140;6.498;2023-08-31T05:24:27;5.20;;;1.92;;
52878;SDS011;38747;53.140;6.498;2023-08-31T05:26:52;6.30;;;1.97;;
52878;SDS011;38747;53.140;6.498;2023-08-31T05:29:18;6.53;;;1.90;;
52878;SDS011;38747;53.140;6.498;2023-08-31T05:31:44;5.63;;;1.70;;
52878;SDS011;38747;53.140;6.498;2023-08-31T05:34:09;5.90;;;1.80;;
52878;SDS011;38747;53.140;6.498;2023-08-31T05:36:35;5.03;;;1.90;;
52878;SDS011;38747;53.140;6.498;2023-08-31T05:39:02;4.35;;;2.00;;
52878;SDS011;38747;53.140;6.498;2023-08-31T05:41:28;6.90;;;1.98;;
52878;SDS011;38747;53.140;6.498;2023-08-31T05:43:53;6.00;;;2.07;;
52878;SDS011;38747;53.140;6.498;2023-08-31T05:46:19;4.80;;;1.98;;
52878;SDS011;38747;53.140;6.498;2023-08-31T05:48:44;4.77;;;2.23;;
52878;SDS011;38747;53.140;6.498;2023-08-31T05:51:10;4.95;;;2.10;;
52878;SDS011;38747;53.140;6.498;2023-08-31T05:53:36;5.17;;;2.10;;
52878;SDS011;38747;53.140;6.498;2023-08-31T05:56:02;5.05;;;1.90;;
52878;SDS011;38747;53.140;6.498;2023-08-31T05:58:32;5.72;;;1.80;;
52878;SDS011;38747;53.140;6.498;2023-08-31T06:00:59;4.17;;;1.53;;
52878;SDS011;38747;53.140;6.498;2023-08-31T06:03:26;8.32;;;1.70;;
52878;SDS011;38747;53.140;6.498;2023-08-31T06:05:51;5.15;;;1.65;;
52878;SDS011;38747;53.140;6.498;2023-08-31T06:08:17;6.20;;;1.87;;
52878;SDS011;38747;53.140;6.498;2023-08-31T06:10:43;5.35;;;1.70;;
52878;SDS011;38747;53.140;6.498;2023-08-31T06:13:08;4.63;;;1.57;;
52878;SDS011;38747;53.140;6.498;2023-08-31T06:15:34;3.78;;;1.70;;
52878;SDS011;38747;53.140;6.498;2023-08-31T06:18:00;5.23;;;1.70;;
52878;SDS011;38747;53.140;6.498;2023-08-31T06:20:25;4.70;;;1.57;;
52878;SDS011;38747;53.140;6.498;2023-08-31T06:22:51;5.25;;;1.70;;
52878;SDS011;38747;53.140;6.498;2023-08-31T06:25:16;4.30;;;1.60;;
52878;SDS011;38747;53.140;6.498;2023-08-31T06:27:43;5.43;;;1.58;;
52878;SDS011;38747;53.140;6.498;2023-08-31T06:30:10;4.78;;;1.45;;
52878;SDS011;38747;53.140;6.498;2023-08-31T06:32:44;5.00;;;1.63;;
52878;SDS011;38747;53.140;6.498;2023-08-31T06:35:12;5.83;;;1.50;;
52878;SDS011;38747;53.140;6.498;2023-08-31T06:37:38;5.38;;;1.83;;
52878;SDS011;38747;53.140;6.498;2023-08-31T06:40:08;6.85;;;1.83;;
52878;SDS011;38747;53.140;6.498;2023-08-31T06:42:38;3.80;;;1.50;;
52878;SDS011;38747;53.140;6.498;2023-08-31T06:45:05;6.10;;;1.38;;
52878;SDS011;38747;53.140;6.498;2023-08-31T06:47:32;5.90;;;1.67;;
52878;SDS011;38747;53.140;6.498;2023-08-31T06:49:58;4.72;;;1.40;;
52878;SDS011;38747;53.140;6.498;2023-08-31T06:52:24;5.68;;;1.70;;
52878;SDS011;38747;53.140;6.498;2023-08-31T06:54:51;5.47;;;1.40;;
52878;SDS011;38747;53.140;6.498;2023-08-31T06:57:20;3.73;;;1.50;;
52878;SDS011;38747;53.140;6.498;2023-08-31T06:59:47;6.63;;;1.52;;
52878;SDS011;38747;53.140;6.498;2023-08-31T07:02:13;4.20;;;1.58;;
52878;SDS011;38747;53.140;6.498;2023-08-31T07:04:39;4.70;;;1.48;;
52878;SDS011;38747;53.140;6.498;2023-08-31T07:07:05;4.15;;;1.20;;
52878;SDS011;38747;53.140;6.498;2023-08-31T07:09:32;3.77;;;1.20;;
52878;SDS011;38747;53.140;6.498;2023-08-31T07:11:57;5.60;;;1.55;;
52878;SDS011;38747;53.140;6.498;2023-08-31T07:14:23;4.50;;;1.10;;
52878;SDS011;38747;53.140;6.498;2023-08-31T07:16:49;3.10;;;0.95;;
52878;SDS011;38747;53.140;6.498;2023-08-31T07:19:15;5.47;;;1.23;;
52878;SDS011;38747;53.140;6.498;2023-08-31T07:21:41;6.87;;;1.53;;
52878;SDS011;38747;53.140;6.498;2023-08-31T07:24:06;6.15;;;1.15;;
52878;SDS011;38747;53.140;6.498;2023-08-31T07:26:33;5.90;;;1.33;;
52878;SDS011;38747;53.140;6.498;2023-08-31T07:29:00;4.03;;;1.30;;
52878;SDS011;38747;53.140;6.498;2023-08-31T07:31:26;5.35;;;1.10;;
52878;SDS011;38747;53.140;6.498;2023-08-31T07:33:52;3.03;;;1.00;;
52878;SDS011;38747;53.140;6.498;2023-08-31T07:36:18;4.07;;;0.80;;
52878;SDS011;38747;53.140;6.498;2023-08-31T07:38:43;3.13;;;0.80;;
52878;SDS011;38747;53.140;6.498;2023-08-31T07:41:09;3.53;;;0.90;;
52878;SDS011;38747;53.140;6.498;2023-08-31T07:43:34;2.80;;;0.93;;
52878;SDS011;38747;53.140;6.498;2023-08-31T07:46:00;5.25;;;0.90;;
52878;SDS011;38747;53.140;6.498;2023-08-31T07:48:26;3.57;;;0.90;;
52878;SDS011;38747;53.140;6.498;2023-08-31T07:50:51;4.25;;;0.93;;
52878;SDS011;38747;53.140;6.498;2023-08-31T07:53:17;3.07;;;0.93;;
52878;SDS011;38747;53.140;6.498;2023-08-31T07:55:50;4.27;;;0.87;;
52878;SDS011;38747;53.140;6.498;2023-08-31T07:58:20;3.23;;;0.80;;
52878;SDS011;38747;53.140;6.498;2023-08-31T08:00:46;3.40;;;0.80;;
52878;SDS011;38747;53.140;6.498;2023-08-31T08:03:12;3.40;;;0.80;;
52878;SDS011;38747;53.140;6.498;2023-08-31T08:05:38;1.73;;;0.70;;
52878;SDS011;38747;53.140;6.498;2023-08-31T08:08:05;5.00;;;0.80;;
52878;SDS011;38747;53.140;6.498;2023-08-31T08:10:30;4.13;;;0.90;;
52878;SDS011;38747;53.140;6.498;2023-08-31T08:12:56;3.42;;;1.10;;
52878;SDS011;38747;53.140;6.498;2023-08-31T08:15:22;5.90;;;0.87;;
52878;SDS011;38747;53.140;6.498;2023-08-31T08:17:47;2.10;;;0.77;;
52878;SDS011;38747;53.140;6.498;2023-08-31T08:20:13;4.00;;;1.30;;
52878;SDS011;38747;53.140;6.498;2023-08-31T08:22:39;3.08;;;0.70;;
52878;SDS011;38747;53.140;6.498;2023-08-31T08:25:05;3.57;;;0.90;;
52878;SDS011;38747;53.140;6.498;2023-08-31T08:27:31;3.13;;;0.90;;
52878;SDS011;38747;53.140;6.498;2023-08-31T08:29:58;5.32;;;0.88;;
52878;SDS011;38747;53.140;6.498;2023-08-31T08:32:24;3.53;;;1.00;;
52878;SDS011;38747;53.140;6.498;2023-08-31T08:34:50;3.83;;;0.87;;
52878;SDS011;38747;53.140;6.498;2023-08-31T08:37:16;2.28;;;0.80;;
52878;SDS011;38747;53.140;6.498;2023-08-31T08:39:42;1.70;;;0.60;;
52878;SDS011;38747;53.140;6.498;2023-08-31T08:42:08;2.33;;;0.77;;
52878;SDS011;38747;53.140;6.498;2023-08-31T08:44:35;2.20;;;0.80;;
52878;SDS011;38747;53.140;6.498;2023-08-31T08:47:01;4.20;;;0.80;;
52878;SDS011;38747;53.140;6.498;2023-08-31T08:49:29;2.55;;;0.90;;
52878;SDS011;38747;53.140;6.498;2023-08-31T08:51:56;3.27;;;0.73;;
52878;SDS011;38747;53.140;6.498;2023-08-31T08:54:23;3.10;;;0.70;;
52878;SDS011;38747;53.140;6.498;2023-08-31T08:56:49;2.20;;;0.70;;
52878;SDS011;38747;53.140;6.498;2023-08-31T08:59:15;3.15;;;0.70;;
52878;SDS011;38747;53.140;6.498;2023-08-31T09:01:41;4.70;;;0.80;;
52878;SDS011;38747;53.140;6.498;2023-08-31T09:04:08;1.42;;;0.50;;
52878;SDS011;38747;53.140;6.498;2023-08-31T09:06:34;2.75;;;0.63;;
52878;SDS011;38747;53.140;6.498;2023-08-31T09:09:00;1.52;;;0.50;;
52878;SDS011;38747;53.140;6.498;2023-08-31T09:11:26;2.47;;;0.50;;
52878;SDS011;38747;53.140;6.498;2023-08-31T09:13:52;1.77;;;0.60;;
52878;SDS011;38747;53.140;6.498;2023-08-31T09:16:27;2.33;;;0.50;;
52878;SDS011;38747;53.140;6.498;2023-08-31T09:18:55;1.83;;;0.63;;
52878;SDS011;38747;53.140;6.498;2023-08-31T09:21:21;1.58;;;0.43;;
52878;SDS011;38747;53.140;6.498;2023-08-31T09:23:58;1.63;;;0.63;;
52878;SDS011;38747;53.140;6.498;2023-08-31T09:26:24;2.75;;;0.68;;
52878;SDS011;38747;53.140;6.498;2023-08-31T09:28:49;1.83;;;0.60;;
52878;SDS011;38747;53.140;6.498;2023-08-31T09:31:15;4.15;;;0.88;;
52878;SDS011;38747;53.140;6.498;2023-08-31T09:33:51;3.90;;;0.87;;
52878;SDS011;38747;53.140;6.498;2023-08-31T09:36:17;3.22;;;0.73;;
52878;SDS011;38747;53.140;6.498;2023-08-31T09:38:43;2.75;;;0.70;;
52878;SDS011;38747;53.140;6.498;2023-08-31T09:41:09;2.83;;;0.80;;
52878;SDS011;38747;53.140;6.498;2023-08-31T09:43:34;3.30;;;0.80;;
52878;SDS011;38747;53.140;6.498;2023-08-31T09:46:00;2.85;;;0.70;;
52878;SDS011;38747;53.140;6.498;2023-08-31T09:48:28;3.73;;;0.70;;
52878;SDS011;38747;53.140;6.498;2023-08-31T09:50:54;2.60;;;0.80;;
52878;SDS011;38747;53.140;6.498;2023-08-31T09:53:21;4.50;;;1.05;;
52878;SDS011;38747;53.140;6.498;2023-08-31T09:55:49;4.07;;;0.82;;
52878;SDS011;38747;53.140;6.498;2023-08-31T09:58:19;6.15;;;0.98;;
52878;SDS011;38747;53.140;6.498;2023-08-31T10:00:46;2.60;;;0.70;;
52878;SDS011;38747;53.140;6.498;2023-08-31T10:03:13;2.97;;;0.70;;
52878;SDS011;38747;53.140;6.498;2023-08-31T10:05:40;1.90;;;0.52;;
52878;SDS011;38747;53.140;6.498;2023-08-31T10:08:11;1.10;;;0.50;;
52878;SDS011;38747;53.140;6.498;2023-08-31T10:10:37;3.28;;;0.80;;
52878;SDS011;38747;53.140;6.498;2023-08-31T10:13:04;2.03;;;0.70;;
52878;SDS011;38747;53.140;6.498;2023-08-31T10:15:31;2.22;;;0.80;;
52878;SDS011;38747;53.140;6.498;2023-08-31T10:17:59;5.72;;;0.60;;
52878;SDS011;38747;53.140;6.498;2023-08-31T10:20:26;1.80;;;0.60;;
52878;SDS011;38747;53.140;6.498;2023-08-31T10:22:56;2.40;;;0.55;;
52878;SDS011;38747;53.140;6.498;2023-08-31T10:28:19;2.92;;;0.57;;
52878;SDS011;38747;53.140;6.498;2023-08-31T10:33:59;1.70;;;0.65;;
52878;SDS011;38747;53.140;6.498;2023-08-31T10:36:40;4.60;;;0.90;;
52878;SDS011;38747;53.140;6.498;2023-08-31T10:39:13;4.97;;;0.80;;
52878;SDS011;38747;53.140;6.498;2023-08-31T10:41:55;2.50;;;0.75;;
52878;SDS011;38747;53.140;6.498;2023-08-31T10:44:22;3.03;;;0.90;;
52878;SDS011;38747;53.140;6.498;2023-08-31T10:46:48;2.60;;;0.70;;
52878;SDS011;38747;53.140;6.498;2023-08-31T10:49:15;3.50;;;0.88;;
52878;SDS011;38747;53.140;6.498;2023-08-31T10:51:43;2.70;;;0.80;;
52878;SDS011;38747;53.140;6.498;2023-08-31T10:57:02;3.17;;;0.80;;
52878;SDS011;38747;53.140;6.498;2023-08-31T10:59:43;4.45;;;0.80;;
52878;SDS011;38747;53.140;6.498;2023-08-31T11:02:29;3.55;;;0.80;;
52878;SDS011;38747;53.140;6.498;2023-08-31T11:05:15;2.30;;;0.70;;
52878;SDS011;38747;53.140;6.498;2023-08-31T11:10:13;2.67;;;0.80;;
52878;SDS011;38747;53.140;6.498;2023-08-31T11:12:44;3.08;;;0.68;;
52878;SDS011;38747;53.140;6.498;2023-08-31T11:15:21;2.50;;;0.70;;
52878;SDS011;38747;53.140;6.498;2023-08-31T11:17:51;2.47;;;0.70;;
52878;SDS011;38747;53.140;6.498;2023-08-31T11:20:19;2.92;;;0.75;;
52878;SDS011;38747;53.140;6.498;2023-08-31T11:22:46;10.05;;;1.10;;
52878;SDS011;38747;53.140;6.498;2023-08-31T11:25:14;2.10;;;0.75;;
52878;SDS011;38747;53.140;6.498;2023-08-31T11:27:41;2.47;;;0.70;;
52878;SDS011;38747;53.140;6.498;2023-08-31T11:30:17;2.13;;;0.77;;
52878;SDS011;38747;53.140;6.498;2023-08-31T11:32:44;3.72;;;0.60;;
52878;SDS011;38747;53.140;6.498;2023-08-31T11:35:14;4.88;;;0.70;;
52878;SDS011;38747;53.140;6.498;2023-08-31T11:37:41;5.70;;;0.80;;
52878;SDS011;38747;53.140;6.498;2023-08-31T11:40:08;4.55;;;0.80;;
52878;SDS011;38747;53.140;6.498;2023-08-31T11:42:34;4.57;;;0.83;;
52878;SDS011;38747;53.140;6.498;2023-08-31T11:45:00;3.65;;;1.05;;
52878;SDS011;38747;53.140;6.498;2023-08-31T11:47:27;4.07;;;0.80;;
52878;SDS011;38747;53.140;6.498;2023-08-31T11:49:53;2.30;;;0.70;;
52878;SDS011;38747;53.140;6.498;2023-08-31T11:52:19;2.05;;;0.70;;
52878;SDS011;38747;53.140;6.498;2023-08-31T11:54:45;2.63;;;0.60;;
52878;SDS011;38747;53.140;6.498;2023-08-31T11:57:11;1.83;;;0.67;;
52878;SDS011;38747;53.140;6.498;2023-08-31T11:59:37;2.35;;;0.70;;
52878;SDS011;38747;53.140;6.498;2023-08-31T12:02:07;3.20;;;0.60;;
52878;SDS011;38747;53.140;6.498;2023-08-31T12:04:33;2.28;;;0.60;;
52878;SDS011;38747;53.140;6.498;2023-08-31T12:07:10;2.15;;;0.60;;
52878;SDS011;38747;53.140;6.498;2023-08-31T12:09:36;3.17;;;0.60;;
52878;SDS011;38747;53.140;6.498;2023-08-31T12:12:02;2.85;;;0.68;;
52878;SDS011;38747;53.140;6.498;2023-08-31T12:14:29;3.80;;;0.60;;
52878;SDS011;38747;53.140;6.498;2023-08-31T12:17:06;2.60;;;0.60;;
52878;SDS011;38747;53.140;6.498;2023-08-31T12:19:33;1.63;;;0.50;;
52878;SDS011;38747;53.140;6.498;2023-08-31T12:22:01;2.05;;;0.70;;
52878;SDS011;38747;53.140;6.498;2023-08-31T12:24:27;2.17;;;0.60;;
52878;SDS011;38747;53.140;6.498;2023-08-31T12:26:53;2.77;;;0.63;;
52878;SDS011;38747;53.140;6.498;2023-08-31T12:29:19;4.57;;;0.70;;
52878;SDS011;38747;53.140;6.498;2023-08-31T12:31:45;1.70;;;0.50;;
52878;SDS011;38747;53.140;6.498;2023-08-31T12:34:11;1.67;;;0.60;;
52878;SDS011;38747;53.140;6.498;2023-08-31T12:36:37;2.33;;;0.63;;
52878;SDS011;38747;53.140;6.498;2023-08-31T12:39:05;1.90;;;0.70;;
52878;SDS011;38747;53.140;6.498;2023-08-31T12:41:32;2.97;;;0.80;;
52878;SDS011;38747;53.140;6.498;2023-08-31T12:43:58;2.80;;;0.60;;
52878;SDS011;38747;53.140;6.498;2023-08-31T12:46:24;1.67;;;0.60;;
52878;SDS011;38747;53.140;6.498;2023-08-31T12:48:50;2.85;;;0.70;;
52878;SDS011;38747;53.140;6.498;2023-08-31T12:51:16;3.57;;;0.90;;
52878;SDS011;38747;53.140;6.498;2023-08-31T12:53:42;3.63;;;0.80;;
52878;SDS011;38747;53.140;6.498;2023-08-31T12:56:08;5.47;;;0.80;;
52878;SDS011;38747;53.140;6.498;2023-08-31T12:58:34;4.57;;;0.70;;
52878;SDS011;38747;53.140;6.498;2023-08-31T13:00:59;3.30;;;0.73;;
52878;SDS011;38747;53.140;6.498;2023-08-31T13:03:26;4.23;;;1.00;;
52878;SDS011;38747;53.140;6.498;2023-08-31T13:05:51;2.17;;;0.70;;
52878;SDS011;38747;53.140;6.498;2023-08-31T13:08:17;4.27;;;0.80;;
52878;SDS011;38747;53.140;6.498;2023-08-31T13:10:42;3.28;;;1.00;;
52878;SDS011;38747;53.140;6.498;2023-08-31T13:13:08;2.87;;;0.90;;
52878;SDS011;38747;53.140;6.498;2023-08-31T13:15:34;3.47;;;0.93;;
52878;SDS011;38747;53.140;6.498;2023-08-31T13:18:00;5.50;;;0.98;;
52878;SDS011;38747;53.140;6.498;2023-08-31T13:20:26;3.37;;;0.60;;
52878;SDS011;38747;53.140;6.498;2023-08-31T13:22:52;4.35;;;0.80;;
52878;SDS011;38747;53.140;6.498;2023-08-31T13:25:18;5.43;;;0.95;;
52878;SDS011;38747;53.140;6.498;2023-08-31T13:27:44;3.67;;;0.87;;
52878;SDS011;38747;53.140;6.498;2023-08-31T13:30:09;6.20;;;0.90;;
52878;SDS011;38747;53.140;6.498;2023-08-31T13:32:37;5.37;;;0.80;;
52878;SDS011;38747;53.140;6.498;2023-08-31T13:35:03;3.47;;;0.80;;
52878;SDS011;38747;53.140;6.498;2023-08-31T13:37:32;3.75;;;0.60;;
52878;SDS011;38747;53.140;6.498;2023-08-31T13:39:58;5.10;;;0.80;;
52878;SDS011;38747;53.140;6.498;2023-08-31T13:42:25;5.63;;;0.70;;
52878;SDS011;38747;53.140;6.498;2023-08-31T13:44:51;5.30;;;0.90;;
52878;SDS011;38747;53.140;6.498;2023-08-31T13:47:16;4.23;;;0.80;;
52878;SDS011;38747;53.140;6.498;2023-08-31T13:49:42;3.00;;;0.60;;
52878;SDS011;38747;53.140;6.498;2023-08-31T13:52:08;5.00;;;0.70;;
52878;SDS011;38747;53.140;6.498;2023-08-31T13:54:35;4.25;;;0.90;;
52878;SDS011;38747;53.140;6.498;2023-08-31T13:57:01;3.83;;;0.70;;
52878;SDS011;38747;53.140;6.498;2023-08-31T13:59:27;3.08;;;0.70;;
52878;SDS011;38747;53.140;6.498;2023-08-31T14:01:56;3.87;;;0.77;;
52878;SDS011;38747;53.140;6.498;2023-08-31T14:04:22;4.63;;;1.02;;
52878;SDS011;38747;53.140;6.498;2023-08-31T14:06:47;4.40;;;0.80;;
52878;SDS011;38747;53.140;6.498;2023-08-31T14:09:13;2.15;;;0.60;;
52878;SDS011;38747;53.140;6.498;2023-08-31T14:11:39;2.72;;;0.68;;
52878;SDS011;38747;53.140;6.498;2023-08-31T14:14:05;3.80;;;0.70;;
52878;SDS011;38747;53.140;6.498;2023-08-31T14:16:35;3.38;;;0.77;;
52878;SDS011;38747;53.140;6.498;2023-08-31T14:19:02;3.60;;;0.60;;
52878;SDS011;38747;53.140;6.498;2023-08-31T14:21:29;3.17;;;0.70;;
52878;SDS011;38747;53.140;6.498;2023-08-31T14:23:54;6.90;;;0.77;;
52878;SDS011;38747;53.140;6.498;2023-08-31T14:26:24;4.45;;;0.70;;
52878;SDS011;38747;53.140;6.498;2023-08-31T14:28:52;3.10;;;0.70;;
52878;SDS011;38747;53.140;6.498;2023-08-31T14:31:19;4.55;;;0.95;;
52878;SDS011;38747;53.140;6.498;2023-08-31T14:33:45;3.45;;;0.80;;
52878;SDS011;38747;53.140;6.498;2023-08-31T14:36:12;4.17;;;0.80;;
52878;SDS011;38747;53.140;6.498;2023-08-31T14:38:39;2.75;;;0.80;;
52878;SDS011;38747;53.140;6.498;2023-08-31T14:41:05;4.20;;;0.95;;
52878;SDS011;38747;53.140;6.498;2023-08-31T14:43:31;3.80;;;0.80;;
52878;SDS011;38747;53.140;6.498;2023-08-31T14:46:00;4.60;;;0.90;;
52878;SDS011;38747;53.140;6.498;2023-08-31T14:48:27;3.72;;;0.95;;
52878;SDS011;38747;53.140;6.498;2023-08-31T14:50:53;2.95;;;0.80;;
52878;SDS011;38747;53.140;6.498;2023-08-31T14:53:19;3.20;;;0.80;;
52878;SDS011;38747;53.140;6.498;2023-08-31T14:55:48;5.03;;;0.82;;
52878;SDS011;38747;53.140;6.498;2023-08-31T14:58:14;2.20;;;0.80;;
52878;SDS011;38747;53.140;6.498;2023-08-31T15:00:40;3.42;;;0.75;;
52878;SDS011;38747;53.140;6.498;2023-08-31T15:03:06;2.13;;;0.70;;
52878;SDS011;38747;53.140;6.498;2023-08-31T15:05:34;4.75;;;1.10;;
52878;SDS011;38747;53.140;6.498;2023-08-31T15:08:01;5.53;;;1.00;;
52878;SDS011;38747;53.140;6.498;2023-08-31T15:10:28;3.10;;;0.73;;